sensor_id;sensor_type;location;lat;lon;timestamp;pressure;altitude;pressure_sealevel;temperature;humidity
66857;BME280;53766;50.280;19.160;2024-01-30T00:00:39;100254.13;;;16.59;46.34
66857;BME280;53766;50.280;19.160;2024-01-30T00:03:26;100247.94;;;16.59;46.28
66857;BME280;53766;50.280;19.160;2024-01-30T00:05:54;100240.97;;;16.58;46.26
66857;BME280;53766;50.280;19.160;2024-01-30T00:08:26;100246.28;;;16.58;46.28
66857;BME280;53766;50.280;19.160;2024-01-30T00:10:54;100245.59;;;16.56;46.32
66857;BME280;53766;50.280;19.160;2024-01-30T00:13:21;100237.31;;;16.59;46.28
66857;BME280;53766;50.280;19.160;2024-01-30T00:15:50;100239.28;;;16.57;46.28
66857;BME280;53766;50.280;19.160;2024-01-30T00:18:17;100240.97;;;16.58;46.27
66857;BME280;53766;50.280;19.160;2024-01-30T00:20:46;100247.25;;;16.57;46.13
66857;BME280;53766;50.280;19.160;2024-01-30T00:23:13;100245.47;;;16.57;46.34
66857;BME280;53766;50.280;19.160;2024-01-30T00:25:41;100252.56;;;16.57;46.28
66857;BME280;53766;50.280;19.160;2024-01-30T00:28:08;100242.94;;;16.56;46.31
66857;BME280;53766;50.280;19.160;2024-01-30T00:30:36;100244.59;;;16.57;46.24
66857;BME280;53766;50.280;19.160;2024-01-30T00:33:03;100245.47;;;16.57;46.17
66857;BME280;53766;50.280;19.160;2024-01-30T00:35:31;100244.75;;;16.55;46.10
66857;BME280;53766;50.280;19.160;2024-01-30T00:37:59;100242.09;;;16.55;46.25
66857;BME280;53766;50.280;19.160;2024-01-30T00:40:27;100242.94;;;16.56;46.16
66857;BME280;53766;50.280;19.160;2024-01-30T00:42:55;100241.25;;;16.55;46.16
66857;BME280;53766;50.280;19.160;2024-01-30T00:45:23;100248.25;;;16.56;46.07
66857;BME280;53766;50.280;19.160;2024-01-30T00:47:50;100242.94;;;16.56;46.10
66857;BME280;53766;50.280;19.160;2024-01-30T00:50:18;100244.59;;;16.57;46.11
66857;BME280;53766;50.280;19.160;2024-01-30T00:52:46;100238.59;;;16.55;46.24
66857;BME280;53766;50.280;19.160;2024-01-30T00:55:13;100242.25;;;16.54;46.16
66857;BME280;53766;50.280;19.160;2024-01-30T00:57:41;100238.44;;;16.56;46.17
66857;BME280;53766;50.280;19.160;2024-01-30T01:00:13;100241.25;;;16.55;46.25
66857;BME280;53766;50.280;19.160;2024-01-30T01:02:43;100233.25;;;16.55;46.01
66857;BME280;53766;50.280;19.160;2024-01-30T01:05:11;100232.44;;;16.54;46.16
66857;BME280;53766;50.280;19.160;2024-01-30T01:07:38;100234.25;;;16.54;46.12
66857;BME280;53766;50.280;19.160;2024-01-30T01:10:07;100226.28;;;16.54;46.25
66857;BME280;53766;50.280;19.160;2024-01-30T01:12:35;100217.31;;;16.55;46.16
66857;BME280;53766;50.280;19.160;2024-01-30T01:15:03;100214.81;;;16.53;46.10
66857;BME280;53766;50.280;19.160;2024-01-30T01:17:31;100209.50;;;16.53;46.00
66857;BME280;53766;50.280;19.160;2024-01-30T01:19:59;100221.09;;;16.52;45.98
66857;BME280;53766;50.280;19.160;2024-01-30T01:22:26;100211.31;;;16.53;46.04
66857;BME280;53766;50.280;19.160;2024-01-30T01:24:54;100214.94;;;16.52;46.02
66857;BME280;53766;50.280;19.160;2024-01-30T01:27:22;100213.97;;;16.53;46.02
66857;BME280;53766;50.280;19.160;2024-01-30T01:29:50;100209.63;;;16.52;46.06
66857;BME280;53766;50.280;19.160;2024-01-30T01:32:17;100209.63;;;16.52;45.98
66857;BME280;53766;50.280;19.160;2024-01-30T01:34:45;100218.63;;;16.51;46.01
66857;BME280;53766;50.280;19.160;2024-01-30T01:37:12;100211.47;;;16.51;46.01
66857;BME280;53766;50.280;19.160;2024-01-30T01:39:40;100197.34;;;16.51;46.03
66857;BME280;53766;50.280;19.160;2024-01-30T01:42:07;100194.81;;;16.49;46.03
66857;BME280;53766;50.280;19.160;2024-01-30T01:44:35;100192.03;;;16.51;45.87
66857;BME280;53766;50.280;19.160;2024-01-30T01:47:03;100194.00;;;16.49;45.89
66857;BME280;53766;50.280;19.160;2024-01-30T01:49:30;100195.66;;;16.50;45.93
66857;BME280;53766;50.280;19.160;2024-01-30T01:51:58;100202.66;;;16.51;45.74
66857;BME280;53766;50.280;19.160;2024-01-30T01:54:27;100200.97;;;16.50;46.08
66857;BME280;53766;50.280;19.160;2024-01-30T01:56:56;100200.00;;;16.51;45.78
66857;BME280;53766;50.280;19.160;2024-01-30T01:59:23;100206.28;;;16.50;45.77
66857;BME280;53766;50.280;19.160;2024-01-30T02:01:52;100197.47;;;16.49;45.90
66857;BME280;53766;50.280;19.160;2024-01-30T02:04:21;100199.31;;;16.49;45.67
66857;BME280;53766;50.280;19.160;2024-01-30T02:06:49;100204.63;;;16.49;45.89
66857;BME280;53766;50.280;19.160;2024-01-30T02:09:17;100197.47;;;16.49;45.73
66857;BME280;53766;50.280;19.160;2024-01-30T02:11:45;100200.97;;;16.50;45.89
66857;BME280;53766;50.280;19.160;2024-01-30T02:14:13;100197.63;;;16.48;45.89
66857;BME280;53766;50.280;19.160;2024-01-30T02:16:41;100193.13;;;16.48;45.75
66857;BME280;53766;50.280;19.160;2024-01-30T02:19:08;100199.31;;;16.49;45.68
66857;BME280;53766;50.280;19.160;2024-01-30T02:21:36;100197.63;;;16.48;45.81
66857;BME280;53766;50.280;19.160;2024-01-30T02:24:04;100196.78;;;16.47;45.77
66857;BME280;53766;50.280;19.160;2024-01-30T02:26:32;100194.25;;;16.45;45.78
66857;BME280;53766;50.280;19.160;2024-01-30T02:29:00;100189.78;;;16.46;45.77
66857;BME280;53766;50.280;19.160;2024-01-30T02:31:27;100192.44;;;16.46;45.83
66857;BME280;53766;50.280;19.160;2024-01-30T02:33:55;100194.97;;;16.48;45.85
66857;BME280;53766;50.280;19.160;2024-01-30T02:36:23;100187.13;;;16.46;45.72
66857;BME280;53766;50.280;19.160;2024-01-30T02:38:51;100183.63;;;16.45;45.48
66857;BME280;53766;50.280;19.160;2024-01-30T02:41:18;100183.63;;;16.45;45.72
66857;BME280;53766;50.280;19.160;2024-01-30T02:43:46;100189.78;;;16.46;45.77
66857;BME280;53766;50.280;19.160;2024-01-30T02:46:14;100182.78;;;16.45;45.51
66857;BME280;53766;50.280;19.160;2024-01-30T02:48:42;100181.97;;;16.44;45.67
66857;BME280;53766;50.280;19.160;2024-01-30T02:51:09;100180.28;;;16.43;45.69
66857;BME280;53766;50.280;19.160;2024-01-30T02:53:37;100180.97;;;16.45;45.59
66857;BME280;53766;50.280;19.160;2024-01-30T02:56:05;100182.09;;;16.43;45.68
66857;BME280;53766;50.280;19.160;2024-01-30T02:58:33;100183.94;;;16.42;45.69
66857;BME280;53766;50.280;19.160;2024-01-30T03:01:00;100181.97;;;16.44;45.52
66857;BME280;53766;50.280;19.160;2024-01-30T03:03:28;100185.59;;;16.43;45.56
66857;BME280;53766;50.280;19.160;2024-01-30T03:05:56;100183.94;;;16.42;45.56
66857;BME280;53766;50.280;19.160;2024-01-30T03:08:23;100183.94;;;16.42;45.54
66857;BME280;53766;50.280;19.160;2024-01-30T03:10:51;100183.94;;;16.42;45.61
66857;BME280;53766;50.280;19.160;2024-01-30T03:13:18;100183.94;;;16.42;45.58
66857;BME280;53766;50.280;19.160;2024-01-30T03:15:46;100179.44;;;16.43;45.38
66857;BME280;53766;50.280;19.160;2024-01-30T03:18:14;100183.09;;;16.42;45.45
66857;BME280;53766;50.280;19.160;2024-01-30T03:20:41;100185.91;;;16.40;45.60
66857;BME280;53766;50.280;19.160;2024-01-30T03:23:09;100176.94;;;16.41;45.36
66857;BME280;53766;50.280;19.160;2024-01-30T03:25:37;100171.59;;;16.41;45.45
66857;BME280;53766;50.280;19.160;2024-01-30T03:28:04;100171.59;;;16.41;45.50
66857;BME280;53766;50.280;19.160;2024-01-30T03:30:32;100172.59;;;16.40;45.34
66857;BME280;53766;50.280;19.160;2024-01-30T03:32:59;100166.28;;;16.41;45.45
66857;BME280;53766;50.280;19.160;2024-01-30T03:35:27;100172.59;;;16.40;45.41
66857;BME280;53766;50.280;19.160;2024-01-30T03:37:55;100176.94;;;16.41;45.42
66857;BME280;53766;50.280;19.160;2024-01-30T03:40:22;100173.56;;;16.39;45.41
66857;BME280;53766;50.280;19.160;2024-01-30T03:42:50;100173.56;;;16.39;45.35
66857;BME280;53766;50.280;19.160;2024-01-30T03:45:17;100175.28;;;16.40;45.33
66857;BME280;53766;50.280;19.160;2024-01-30T03:47:47;100180.59;;;16.40;45.36
66857;BME280;53766;50.280;19.160;2024-01-30T03:50:14;100175.41;;;16.39;45.23
66857;BME280;53766;50.280;19.160;2024-01-30T03:52:42;100176.25;;;16.39;45.13
66857;BME280;53766;50.280;19.160;2024-01-30T03:55:09;100178.91;;;16.39;45.21
66857;BME280;53766;50.280;19.160;2024-01-30T03:57:37;100173.56;;;16.39;45.25
66857;BME280;53766;50.280;19.160;2024-01-30T04:00:05;100169.25;;;16.38;45.22
66857;BME280;53766;50.280;19.160;2024-01-30T04:02:32;100169.94;;;16.40;45.31
66857;BME280;53766;50.280;19.160;2024-01-30T04:05:00;100164.91;;;16.37;45.28
66857;BME280;53766;50.280;19.160;2024-01-30T04:07:28;100161.41;;;16.37;45.09
66857;BME280;53766;50.280;19.160;2024-01-30T04:09:56;100171.91;;;16.38;45.20
66857;BME280;53766;50.280;19.160;2024-01-30T04:12:24;100164.91;;;16.37;45.22
66857;BME280;53766;50.280;19.160;2024-01-30T04:14:51;100168.56;;;16.36;45.22
66857;BME280;53766;50.280;19.160;2024-01-30T04:17:19;100170.22;;;16.37;45.04
66857;BME280;53766;50.280;19.160;2024-01-30T04:19:46;100167.56;;;16.37;45.13
66857;BME280;53766;50.280;19.160;2024-01-30T04:22:14;100169.41;;;16.37;45.26
66857;BME280;53766;50.280;19.160;2024-01-30T04:24:41;100160.47;;;16.38;44.91
66857;BME280;53766;50.280;19.160;2024-01-30T04:27:09;100148.97;;;16.37;44.90
66857;BME280;53766;50.280;19.160;2024-01-30T04:29:36;100154.28;;;16.37;44.82
66857;BME280;53766;50.280;19.160;2024-01-30T04:32:04;100155.97;;;16.38;44.74
66857;BME280;53766;50.280;19.160;2024-01-30T04:34:32;100161.28;;;16.38;44.85
66857;BME280;53766;50.280;19.160;2024-01-30T04:37:00;100164.78;;;16.39;44.75
66857;BME280;53766;50.280;19.160;2024-01-30T04:39:27;100167.56;;;16.37;44.70
66857;BME280;53766;50.280;19.160;2024-01-30T04:41:55;100160.47;;;16.38;44.56
66857;BME280;53766;50.280;19.160;2024-01-30T04:44:22;100167.56;;;16.37;44.58
66857;BME280;53766;50.280;19.160;2024-01-30T04:46:50;100168.56;;;16.36;44.48
66857;BME280;53766;50.280;19.160;2024-01-30T04:49:17;100177.56;;;16.35;44.59
66857;BME280;53766;50.280;19.160;2024-01-30T04:51:45;100170.53;;;16.34;44.43
66857;BME280;53766;50.280;19.160;2024-01-30T04:54:12;100166.91;;;16.35;44.49
66857;BME280;53766;50.280;19.160;2024-01-30T04:56:40;100165.22;;;16.34;44.62
66857;BME280;53766;50.280;19.160;2024-01-30T04:59:07;100165.22;;;16.34;44.58
66857;BME280;53766;50.280;19.160;2024-01-30T05:01:36;100160.91;;;16.33;44.46
66857;BME280;53766;50.280;19.160;2024-01-30T05:04:03;100162.56;;;16.34;44.25
66857;BME280;53766;50.280;19.160;2024-01-30T05:06:31;100166.91;;;16.35;44.25
66857;BME280;53766;50.280;19.160;2024-01-30T05:08:58;100167.88;;;16.34;44.27
66857;BME280;53766;50.280;19.160;2024-01-30T05:11:26;100170.53;;;16.34;44.37
66857;BME280;53766;50.280;19.160;2024-01-30T05:13:54;100161.72;;;16.34;44.22
66857;BME280;53766;50.280;19.160;2024-01-30T05:16:22;100162.56;;;16.34;44.40
66857;BME280;53766;50.280;19.160;2024-01-30T05:18:49;100165.22;;;16.34;44.38
66857;BME280;53766;50.280;19.160;2024-01-30T05:21:17;100164.41;;;16.34;44.31
66857;BME280;53766;50.280;19.160;2024-01-30T05:23:44;100163.41;;;16.35;44.60
66857;BME280;53766;50.280;19.160;2024-01-30T05:26:12;100169.72;;;16.34;44.70
66857;BME280;53766;50.280;19.160;2024-01-30T05:28:39;100171.53;;;16.33;44.71
66857;BME280;53766;50.280;19.160;2024-01-30T05:31:08;100173.34;;;16.33;44.91
66857;BME280;53766;50.280;19.160;2024-01-30T05:33:35;100176.84;;;16.33;44.93
66857;BME280;53766;50.280;19.160;2024-01-30T05:36:03;100174.19;;;16.33;44.87
66857;BME280;53766;50.280;19.160;2024-01-30T05:38:31;100168.03;;;16.33;45.22
66857;BME280;53766;50.280;19.160;2024-01-30T05:40:59;100176.69;;;16.35;45.24
66857;BME280;53766;50.280;19.160;2024-01-30T05:43:26;100169.72;;;16.34;45.28
66857;BME280;53766;50.280;19.160;2024-01-30T05:45:54;100173.19;;;16.34;45.31
66857;BME280;53766;50.280;19.160;2024-01-30T05:48:22;100168.03;;;16.33;45.49
66857;BME280;53766;50.280;19.160;2024-01-30T05:50:49;100169.72;;;16.34;45.39
66857;BME280;53766;50.280;19.160;2024-01-30T05:53:17;100174.19;;;16.33;45.25
66857;BME280;53766;50.280;19.160;2024-01-30T05:55:45;100168.88;;;16.33;45.43
66857;BME280;53766;50.280;19.160;2024-01-30T05:58:13;100172.50;;;16.32;45.23
66857;BME280;53766;50.280;19.160;2024-01-30T06:00:40;100173.34;;;16.33;45.36
66857;BME280;53766;50.280;19.160;2024-01-30T06:03:08;100172.50;;;16.32;45.23
66857;BME280;53766;50.280;19.160;2024-01-30T06:05:36;100177.00;;;16.32;45.38
66857;BME280;53766;50.280;19.160;2024-01-30T06:08:04;100170.84;;;16.31;45.33
66857;BME280;53766;50.280;19.160;2024-01-30T06:10:31;100171.81;;;16.30;45.23
66857;BME280;53766;50.280;19.160;2024-01-30T06:12:59;100170.84;;;16.31;45.38
66857;BME280;53766;50.280;19.160;2024-01-30T06:15:26;100178.97;;;16.30;45.38
66857;BME280;53766;50.280;19.160;2024-01-30T06:17:54;100174.47;;;16.30;45.13
66857;BME280;53766;50.280;19.160;2024-01-30T06:20:21;100175.31;;;16.31;45.23
66857;BME280;53766;50.280;19.160;2024-01-30T06:22:49;100178.81;;;16.31;45.17
66857;BME280;53766;50.280;19.160;2024-01-30T06:25:17;100175.47;;;16.29;45.22
66857;BME280;53766;50.280;19.160;2024-01-30T06:27:45;100172.81;;;16.29;45.26
66857;BME280;53766;50.280;19.160;2024-01-30T06:30:12;100174.47;;;16.30;45.00
66857;BME280;53766;50.280;19.160;2024-01-30T06:32:40;100169.47;;;16.27;45.35
66857;BME280;53766;50.280;19.160;2024-01-30T06:35:08;100163.16;;;16.28;45.09
66857;BME280;53766;50.280;19.160;2024-01-30T06:37:36;100169.47;;;16.27;45.18
66857;BME280;53766;50.280;19.160;2024-01-30T06:40:04;100180.09;;;16.27;45.27
66857;BME280;53766;50.280;19.160;2024-01-30T06:42:32;100177.44;;;16.27;45.23
66857;BME280;53766;50.280;19.160;2024-01-30T06:45:00;100171.44;;;16.25;45.02
66857;BME280;53766;50.280;19.160;2024-01-30T06:47:28;100164.97;;;16.28;45.07
66857;BME280;53766;50.280;19.160;2024-01-30T06:49:56;100173.97;;;16.27;45.10
66857;BME280;53766;50.280;19.160;2024-01-30T06:52:24;100178.41;;;16.26;45.07
66857;BME280;53766;50.280;19.160;2024-01-30T06:54:52;100172.13;;;16.27;44.94
66857;BME280;53766;50.280;19.160;2024-01-30T06:57:20;100169.47;;;16.27;44.92
66857;BME280;53766;50.280;19.160;2024-01-30T06:59:47;100179.28;;;16.27;45.10
66857;BME280;53766;50.280;19.160;2024-01-30T07:02:15;100173.09;;;16.26;45.00
66857;BME280;53766;50.280;19.160;2024-01-30T07:04:42;100180.09;;;16.27;45.10
66857;BME280;53766;50.280;19.160;2024-01-30T07:07:14;100186.38;;;16.26;44.89
66857;BME280;53766;50.280;19.160;2024-01-30T07:09:43;100187.25;;;16.27;44.87
66857;BME280;53766;50.280;19.160;2024-01-30T07:12:10;100185.56;;;16.25;45.02
66857;BME280;53766;50.280;19.160;2024-01-30T07:14:38;100193.53;;;16.25;44.98
66857;BME280;53766;50.280;19.160;2024-01-30T07:17:05;100187.38;;;16.25;44.73
66857;BME280;53766;50.280;19.160;2024-01-30T07:19:33;100201.38;;;16.27;44.69
66857;BME280;53766;50.280;19.160;2024-01-30T07:22:02;100195.22;;;16.27;44.80
66857;BME280;53766;50.280;19.160;2024-01-30T07:24:29;100198.03;;;16.25;44.88
66857;BME280;53766;50.280;19.160;2024-01-30T07:26:57;100198.03;;;16.25;44.81
66857;BME280;53766;50.280;19.160;2024-01-30T07:29:25;100189.03;;;16.26;44.65
66857;BME280;53766;50.280;19.160;2024-01-30T07:31:52;100197.03;;;16.26;44.76
66857;BME280;53766;50.280;19.160;2024-01-30T07:34:20;100199.69;;;16.26;44.62
66857;BME280;53766;50.280;19.160;2024-01-30T07:36:48;100189.91;;;16.27;44.73
66857;BME280;53766;50.280;19.160;2024-01-30T07:39:18;100189.03;;;16.26;44.67
66857;BME280;53766;50.280;19.160;2024-01-30T07:41:46;100182.75;;;16.27;44.78
66857;BME280;53766;50.280;19.160;2024-01-30T07:44:13;100182.75;;;16.27;44.55
66857;BME280;53766;50.280;19.160;2024-01-30T07:46:42;100181.75;;;16.28;44.64
66857;BME280;53766;50.280;19.160;2024-01-30T07:49:09;100175.47;;;16.29;44.53
66857;BME280;53766;50.280;19.160;2024-01-30T07:51:37;100178.97;;;16.30;44.50
66857;BME280;53766;50.280;19.160;2024-01-30T07:54:05;100181.47;;;16.31;44.48
66857;BME280;53766;50.280;19.160;2024-01-30T07:56:32;100182.44;;;16.30;44.50
66857;BME280;53766;50.280;19.160;2024-01-30T07:59:00;100182.31;;;16.32;44.38
66857;BME280;53766;50.280;19.160;2024-01-30T08:01:28;100186.50;;;16.34;44.49
66857;BME280;53766;50.280;19.160;2024-01-30T08:03:55;100187.50;;;16.33;44.36
66857;BME280;53766;50.280;19.160;2024-01-30T08:06:23;100181.31;;;16.33;44.42
66857;BME280;53766;50.280;19.160;2024-01-30T08:08:51;100184.84;;;16.33;44.28
66857;BME280;53766;50.280;19.160;2024-01-30T08:11:21;100197.13;;;16.34;44.43
66857;BME280;53766;50.280;19.160;2024-01-30T08:13:53;100191.81;;;16.34;44.39
66857;BME280;53766;50.280;19.160;2024-01-30T08:16:20;100194.34;;;16.36;44.39
66857;BME280;53766;50.280;19.160;2024-01-30T08:18:48;100188.19;;;16.35;44.34
66857;BME280;53766;50.280;19.160;2024-01-30T08:21:16;100194.16;;;16.37;44.44
66857;BME280;53766;50.280;19.160;2024-01-30T08:23:43;100186.19;;;16.37;44.27
66857;BME280;53766;50.280;19.160;2024-01-30T08:26:11;100191.50;;;16.37;44.16
66857;BME280;53766;50.280;19.160;2024-01-30T08:28:38;100195.72;;;16.40;44.28
66857;BME280;53766;50.280;19.160;2024-01-30T08:31:06;100186.88;;;16.39;44.34
66857;BME280;53766;50.280;19.160;2024-01-30T08:33:34;100199.19;;;16.40;44.20
66857;BME280;53766;50.280;19.160;2024-01-30T08:36:01;100191.22;;;16.40;44.23
66857;BME280;53766;50.280;19.160;2024-01-30T08:38:29;100196.53;;;16.40;44.31
66857;BME280;53766;50.280;19.160;2024-01-30T08:40:57;100189.25;;;16.42;44.04
66857;BME280;53766;50.280;19.160;2024-01-30T08:43:25;100196.41;;;16.42;44.14
66857;BME280;53766;50.280;19.160;2024-01-30T08:45:53;100195.41;;;16.43;44.08
66857;BME280;53766;50.280;19.160;2024-01-30T08:48:21;100190.09;;;16.43;44.14
66857;BME280;53766;50.280;19.160;2024-01-30T08:50:50;100199.59;;;16.45;44.04
66857;BME280;53766;50.280;19.160;2024-01-30T08:53:17;100191.78;;;16.44;44.13
66857;BME280;53766;50.280;19.160;2024-01-30T08:55:46;100190.78;;;16.45;44.11
66857;BME280;53766;50.280;19.160;2024-01-30T08:58:13;100194.25;;;16.45;44.24
66857;BME280;53766;50.280;19.160;2024-01-30T09:00:41;100199.59;;;16.45;44.04
66857;BME280;53766;50.280;19.160;2024-01-30T09:03:08;100195.09;;;16.46;44.30
66857;BME280;53766;50.280;19.160;2024-01-30T09:05:36;100194.97;;;16.48;44.19
66857;BME280;53766;50.280;19.160;2024-01-30T09:08:04;100191.47;;;16.47;44.11
66857;BME280;53766;50.280;19.160;2024-01-30T09:10:32;100191.31;;;16.49;44.14
66857;BME280;53766;50.280;19.160;2024-01-30T09:12:59;100191.31;;;16.49;43.99
66857;BME280;53766;50.280;19.160;2024-01-30T09:15:27;100186.00;;;16.49;44.17
66857;BME280;53766;50.280;19.160;2024-01-30T09:17:54;100195.66;;;16.50;44.18
66857;BME280;53766;50.280;19.160;2024-01-30T09:20:22;100186.69;;;16.51;44.08
66857;BME280;53766;50.280;19.160;2024-01-30T09:22:50;100184.72;;;16.53;44.13
66857;BME280;53766;50.280;19.160;2024-01-30T09:25:18;100187.53;;;16.51;44.16
66857;BME280;53766;50.280;19.160;2024-01-30T09:27:46;100190.03;;;16.53;44.04
66857;BME280;53766;50.280;19.160;2024-01-30T09:30:14;100184.72;;;16.53;44.22
66857;BME280;53766;50.280;19.160;2024-01-30T09:32:42;100186.38;;;16.54;44.25
66857;BME280;53766;50.280;19.160;2024-01-30T09:35:10;100184.72;;;16.53;44.21
66857;BME280;53766;50.280;19.160;2024-01-30T09:37:38;100184.72;;;16.53;44.25
66857;BME280;53766;50.280;19.160;2024-01-30T09:40:07;100185.56;;;16.53;44.15
66857;BME280;53766;50.280;19.160;2024-01-30T09:42:35;100187.06;;;16.56;44.22
66857;BME280;53766;50.280;19.160;2024-01-30T09:45:05;100182.72;;;16.55;44.11
66857;BME280;53766;50.280;19.160;2024-01-30T09:47:41;100186.38;;;16.54;44.26
66857;BME280;53766;50.280;19.160;2024-01-30T09:50:13;100184.72;;;16.53;43.98
66857;BME280;53766;50.280;19.160;2024-01-30T09:52:42;100186.69;;;16.51;43.75
66857;BME280;53766;50.280;19.160;2024-01-30T09:55:10;100178.72;;;16.51;44.08
66857;BME280;53766;50.280;19.160;2024-01-30T09:57:38;100175.19;;;16.50;43.93
66857;BME280;53766;50.280;19.160;2024-01-30T10:00:06;100171.56;;;16.51;43.92
66857;BME280;53766;50.280;19.160;2024-01-30T10:02:37;100169.06;;;16.50;44.00
66857;BME280;53766;50.280;19.160;2024-01-30T10:05:05;100166.38;;;16.50;43.88
66857;BME280;53766;50.280;19.160;2024-01-30T10:07:33;100168.09;;;16.51;44.01
66857;BME280;53766;50.280;19.160;2024-01-30T10:10:01;100161.75;;;16.52;43.89
66857;BME280;53766;50.280;19.160;2024-01-30T10:12:29;100153.63;;;16.53;43.99
66857;BME280;53766;50.280;19.160;2024-01-30T10:14:57;100160.94;;;16.51;44.03
66857;BME280;53766;50.280;19.160;2024-01-30T10:17:25;100148.47;;;16.52;43.84
66857;BME280;53766;50.280;19.160;2024-01-30T10:20:00;100151.13;;;16.52;43.95
66857;BME280;53766;50.280;19.160;2024-01-30T10:22:31;100147.50;;;16.53;44.02
66857;BME280;53766;50.280;19.160;2024-01-30T10:25:00;100141.31;;;16.52;44.13
66857;BME280;53766;50.280;19.160;2024-01-30T10:27:31;100135.16;;;16.52;43.80
66857;BME280;53766;50.280;19.160;2024-01-30T10:29:59;100137.81;;;16.52;44.09
66857;BME280;53766;50.280;19.160;2024-01-30T10:32:27;100134.19;;;16.53;43.97
66857;BME280;53766;50.280;19.160;2024-01-30T10:34:55;100125.22;;;16.54;44.14
66857;BME280;53766;50.280;19.160;2024-01-30T10:37:25;100127.88;;;16.54;44.16
66857;BME280;53766;50.280;19.160;2024-01-30T10:39:54;100125.22;;;16.54;44.13
66857;BME280;53766;50.280;19.160;2024-01-30T10:42:26;100125.06;;;16.55;44.01
66857;BME280;53766;50.280;19.160;2024-01-30T10:45:06;100115.25;;;16.56;44.07
66857;BME280;53766;50.280;19.160;2024-01-30T10:47:39;100116.22;;;16.55;44.32
66857;BME280;53766;50.280;19.160;2024-01-30T10:50:10;100114.25;;;16.57;44.04
66857;BME280;53766;50.280;19.160;2024-01-30T10:52:39;100117.09;;;16.55;43.97
66857;BME280;53766;50.280;19.160;2024-01-30T10:55:10;100104.63;;;16.56;44.14
66857;BME280;53766;50.280;19.160;2024-01-30T10:57:37;100109.13;;;16.55;44.19
66857;BME280;53766;50.280;19.160;2024-01-30T11:00:10;100103.63;;;16.57;43.99
66857;BME280;53766;50.280;19.160;2024-01-30T11:02:40;100103.63;;;16.57;44.09
66857;BME280;53766;50.280;19.160;2024-01-30T11:05:09;100100.97;;;16.57;44.10
66857;BME280;53766;50.280;19.160;2024-01-30T11:07:39;100095.63;;;16.57;44.04
66857;BME280;53766;50.280;19.160;2024-01-30T11:10:08;100091.19;;;16.57;44.16
66857;BME280;53766;50.280;19.160;2024-01-30T11:12:40;100089.34;;;16.58;44.12
66857;BME280;53766;50.280;19.160;2024-01-30T11:15:15;100093.66;;;16.59;44.08
66857;BME280;53766;50.280;19.160;2024-01-30T11:17:50;100092.69;;;16.60;43.91
66857;BME280;53766;50.280;19.160;2024-01-30T11:20:29;100093.66;;;16.59;44.10
66857;BME280;53766;50.280;19.160;2024-01-30T11:23:02;100084.72;;;16.60;43.99
66857;BME280;53766;50.280;19.160;2024-01-30T11:25:34;100083.03;;;16.59;44.13
66857;BME280;53766;50.280;19.160;2024-01-30T11:28:02;100092.69;;;16.60;44.07
66857;BME280;53766;50.280;19.160;2024-01-30T11:30:32;100081.22;;;16.59;43.98
66857;BME280;53766;50.280;19.160;2024-01-30T11:33:14;100073.25;;;16.59;44.01
66857;BME280;53766;50.280;19.160;2024-01-30T11:35:43;100077.41;;;16.62;43.89
66857;BME280;53766;50.280;19.160;2024-01-30T11:38:13;100078.41;;;16.61;43.99
66857;BME280;53766;50.280;19.160;2024-01-30T11:40:43;100072.09;;;16.62;44.13
66857;BME280;53766;50.280;19.160;2024-01-30T11:43:11;100071.28;;;16.61;43.89
66857;BME280;53766;50.280;19.160;2024-01-30T11:45:39;100069.44;;;16.62;43.96
66857;BME280;53766;50.280;19.160;2024-01-30T11:48:08;100060.47;;;16.63;44.02
66857;BME280;53766;50.280;19.160;2024-01-30T11:50:39;100063.13;;;16.63;44.02
66857;BME280;53766;50.280;19.160;2024-01-30T11:53:11;100059.47;;;16.64;44.05
66857;BME280;53766;50.280;19.160;2024-01-30T11:55:39;100055.00;;;16.64;44.02
66857;BME280;53766;50.280;19.160;2024-01-30T11:58:07;100052.34;;;16.64;43.96
66857;BME280;53766;50.280;19.160;2024-01-30T12:00:36;100044.34;;;16.64;44.05
66857;BME280;53766;50.280;19.160;2024-01-30T12:03:03;100038.88;;;16.66;44.01
66857;BME280;53766;50.280;19.160;2024-01-30T12:05:34;100036.22;;;16.66;43.76
66857;BME280;53766;50.280;19.160;2024-01-30T12:08:03;100039.84;;;16.65;43.87
66857;BME280;53766;50.280;19.160;2024-01-30T12:10:31;100031.72;;;16.66;43.87
66857;BME280;53766;50.280;19.160;2024-01-30T12:12:59;100030.91;;;16.66;43.90
66857;BME280;53766;50.280;19.160;2024-01-30T12:15:27;100024.59;;;16.67;43.88
66857;BME280;53766;50.280;19.160;2024-01-30T12:18:06;100023.59;;;16.68;43.83
66857;BME280;53766;50.280;19.160;2024-01-30T12:20:35;100022.75;;;16.67;43.92
66857;BME280;53766;50.280;19.160;2024-01-30T12:23:03;100015.63;;;16.68;43.89
66857;BME280;53766;50.280;19.160;2024-01-30T12:25:30;100012.97;;;16.68;43.85
66857;BME280;53766;50.280;19.160;2024-01-30T12:27:58;100014.63;;;16.69;43.85
66857;BME280;53766;50.280;19.160;2024-01-30T12:30:27;100011.00;;;16.70;43.92
66857;BME280;53766;50.280;19.160;2024-01-30T12:32:55;100016.31;;;16.70;43.77
66857;BME280;53766;50.280;19.160;2024-01-30T12:35:23;100009.16;;;16.71;43.77
66857;BME280;53766;50.280;19.160;2024-01-30T12:37:51;100009.16;;;16.71;43.70
66857;BME280;53766;50.280;19.160;2024-01-30T12:40:18;100008.34;;;16.70;43.69
66857;BME280;53766;50.280;19.160;2024-01-30T12:42:47;100010.13;;;16.70;43.93
66857;BME280;53766;50.280;19.160;2024-01-30T12:45:17;100002.00;;;16.71;43.73